Time;durP1;ratioP1;P1;durP2;ratioP2;P2;SDS_P1;SDS_P2;PMS_P1;PMS_P2;Temp;Humidity;BMP_temperature;BMP_pressure;BME280_temperature;BME280_humidity;BME280_pressure;Samples;Min_cycle;Max_cycle;Signal;HPM_P1;HPM_P2
2022/10/23 00:01:42;;;;;;;;;;;;;;;;;;5054634;28;1087;-73
2022/10/23 00:04:11;;;;;;;;;;;;;;;;;;5054822;28;1914;-72
2022/10/23 00:06:37;;;;;;;;;;;;;;;;;;5054771;28;1067;-72
2022/10/23 00:09:04;;;;;;;;;;;;;;;;;;5054895;28;1286;-72
2022/10/23 00:11:31;;;;;;;;;;;;;;;;;;5054057;28;763;-73
2022/10/23 00:13:58;;;;;;;;;;;;;;;;;;5035853;28;1216;-74
2022/10/23 00:16:25;;;;;;;;;;;;;;;;;;5054745;28;1079;-73
2022/10/23 00:18:51;;;;;;;;;;;;;;;;;;5054884;28;1309;-72
2022/10/23 00:21:17;;;;;;;;;;;;;;;;;;5054685;28;1514;-71
2022/10/23 00:23:44;;;;;;;;;;;;;;;;;;5054458;28;945;-72
2022/10/23 00:26:14;;;;;;;;;;;;;;;;;;5036623;28;1983;-73
2022/10/23 00:28:42;;;;;;;;;;;;;;;;;;5054549;28;1301;-72
2022/10/23 00:31:08;;;;;;;;;;;;;;;;;;5054545;28;786;-72
2022/10/23 00:33:34;;;;;;;;;;;;;;;;;;5054117;28;1123;-73
2022/10/23 00:36:01;;;;;;;;;;;;;;;;;;5036632;28;1136;-72
2022/10/23 00:38:27;;;;;;;;;;;;;;;;;;5054066;28;1434;-72
2022/10/23 00:40:53;;;;;;;;;;;;;;;;;;5036445;28;1113;-73
2022/10/23 00:43:20;;;;;;;;;;;;;;;;;;5035660;28;1493;-72
2022/10/23 00:45:47;;;;;;;;;;;;;;;;;;5036183;28;1981;-74
2022/10/23 00:48:14;;;;;;;;;;;;;;;;;;5054171;28;1309;-71
2022/10/23 00:50:40;;;;;;;;;;;;;;;;;;5036269;28;1625;-72
2022/10/23 00:53:06;;;;;;;;;;;;;;;;;;5035904;28;1108;-73
2022/10/23 00:55:33;;;;;;;;;;;;;;;;;;5054031;28;1127;-72
2022/10/23 00:57:59;;;;;;;;;;;;;;;;;;5054226;28;1399;-74
2022/10/23 01:00:26;;;;;;;;;;;;;;;;;;5036090;28;1163;-74
2022/10/23 01:02:54;;;;;;;;;;;;;;;;;;5035570;28;1337;-72
2022/10/23 01:05:22;;;;;;;;;;;;;;;;;;5019505;28;1914;-73
2022/10/23 01:07:50;;;;;;;;;;;;;;;;;;5038167;28;1480;-72
2022/10/23 01:10:18;;;;;;;;;;;;;;;;;;5036016;28;1301;-72
2022/10/23 01:12:45;;;;;;;;;;;;;;;;;;5035552;28;1428;-71
2022/10/23 01:15:14;;;;;;;;;;;;;;;;;;5035841;28;1483;-73
2022/10/23 01:17:42;;;;;;;;;;;;;;;;;;5035590;28;1324;-72
2022/10/23 01:20:23;;;;;;;;;;;;;;;;;;5035882;28;1377;-73
2022/10/23 01:22:54;;;;;;;;;;;;;;;;;;5053123;28;1072;-72
2022/10/23 01:25:23;;;;;;;;;;;;;;;;;;5035657;28;1983;-72
2022/10/23 01:27:52;;;;;;;;;;;;;;;;;;5053502;28;1298;-72
2022/10/23 01:30:18;;;;;;;;;;;;;;;;;;5035510;28;1300;-72
2022/10/23 01:32:49;;;;;;;;;;;;;;;;;;5035132;28;1425;-73
2022/10/23 01:35:18;;;;;;;;;;;;;;;;;;5035421;28;1169;-72
2022/10/23 01:37:50;;;;;;;;;;;;;;;;;;5035379;28;1427;-72
2022/10/23 01:40:19;;;;;;;;;;;;;;;;;;5035396;28;1506;-72
2022/10/23 01:42:46;;;;;;;;;;;;;;;;;;5034991;28;1128;-71
2022/10/23 01:45:15;;;;;;;;;;;;;;;;;;5035453;28;1908;-73
2022/10/23 01:47:43;;;;;;;;;;;;;;;;;;5035195;28;1335;-73
2022/10/23 01:50:10;;;;;;;;;;;;;;;;;;5035380;28;1391;-72
2022/10/23 01:52:39;;;;;;;;;;;;;;;;;;5034885;28;2107;-72
2022/10/23 01:55:05;;;;;;;;;;;;;;;;;;5034358;28;1425;-72
2022/10/23 01:57:34;;;;;;;;;;;;;;;;;;5035129;28;1395;-73
2022/10/23 02:00:01;;;;;;;;;;;;;;;;;;5035368;28;1404;-72
2022/10/23 02:02:29;;;;;;;;;;;;;;;;;;5034685;28;1154;-73
2022/10/23 02:04:56;;;;;;;;;;;;;;;;;;5035038;28;1910;-72
2022/10/23 02:07:22;;;;;;;;;;;;;;;;;;5034780;28;1297;-74
2022/10/23 02:09:49;;;;;;;;;;;;;;;;;;5035268;28;1094;-72
2022/10/23 02:12:18;;;;;;;;;;;;;;;;;;5052358;28;763;-72
2022/10/23 02:14:46;;;;;;;;;;;;;;;;;;5034518;28;1287;-72
2022/10/23 02:17:15;;;;;;;;;;;;;;;;;;5034690;28;1405;-69
2022/10/23 02:19:44;;;;;;;;;;;;;;;;;;5034874;28;1582;-73
2022/10/23 02:22:11;;;;;;;;;;;;;;;;;;5034501;28;1117;-73
2022/10/23 02:24:38;;;;;;;;;;;;;;;;;;5034521;28;1280;-72
2022/10/23 02:27:08;;;;;;;;;;;;;;;;;;5034934;28;1918;-72
2022/10/23 02:29:34;;;;;;;;;;;;;;;;;;5034544;28;1398;-74
2022/10/23 02:32:01;;;;;;;;;;;;;;;;;;5034470;28;1293;-72
2022/10/23 02:34:27;;;;;;;;;;;;;;;;;;5034688;28;1562;-72
2022/10/23 02:36:55;;;;;;;;;;;;;;;;;;5034538;28;1290;-72
2022/10/23 02:39:23;;;;;;;;;;;;;;;;;;5034597;28;1373;-74
2022/10/23 02:41:51;;;;;;;;;;;;;;;;;;5034478;28;1188;-73
2022/10/23 02:44:21;;;;;;;;;;;;;;;;;;5034473;28;975;-73
2022/10/23 02:46:50;;;;;;;;;;;;;;;;;;5034438;28;1910;-73
2022/10/23 02:49:18;;;;;;;;;;;;;;;;;;5034516;28;1483;-72
2022/10/23 02:51:48;;;;;;;;;;;;;;;;;;5034017;28;1262;-72
2022/10/23 02:54:24;;;;;;;;;;;;;;;;;;5034292;28;1100;-72
2022/10/23 02:56:50;;;;;;;;;;;;;;;;;;5052317;28;1087;-73
2022/10/23 02:59:19;;;;;;;;;;;;;;;;;;5034283;28;1445;-72
2022/10/23 03:01:46;;;;;;;;;;;;;;;;;;5034131;28;1248;-72
2022/10/23 03:04:13;;;;;;;;;;;;;;;;;;5034330;28;1859;-72
2022/10/23 03:06:39;;;;;;;;;;;;;;;;;;5037305;28;1966;-73
2022/10/23 03:09:06;;;;;;;;;;;;;;;;;;5038311;28;1375;-73
2022/10/23 03:11:34;;;;;;;;;;;;;;;;;;5040253;28;1495;-73
2022/10/23 03:14:00;;;;;;;;;;;;;;;;;;5037971;28;1171;-72
2022/10/23 03:16:26;;;;;;;;;;;;;;;;;;5037977;28;1421;-72
2022/10/23 03:18:54;;;;;;;;;;;;;;;;;;5037798;28;1351;-74
2022/10/23 03:21:21;;;;;;;;;;;;;;;;;;5031959;28;2615;-73
2022/10/23 03:23:50;;;;;;;;;;;;;;;;;;5037882;28;1383;-73
2022/10/23 03:26:21;;;;;;;;;;;;;;;;;;5037865;28;1918;-71
2022/10/23 03:28:49;;;;;;;;;;;;;;;;;;5037485;28;1407;-72
2022/10/23 03:31:18;;;;;;;;;;;;;;;;;;5037608;28;1099;-74
2022/10/23 03:33:45;;;;;;;;;;;;;;;;;;5037709;28;959;-73
2022/10/23 03:36:11;;;;;;;;;;;;;;;;;;5055566;28;787;-73
2022/10/23 03:38:39;;;;;;;;;;;;;;;;;;5037662;28;1357;-73
2022/10/23 03:41:06;;;;;;;;;;;;;;;;;;5037626;28;1392;-74
2022/10/23 03:43:32;;;;;;;;;;;;;;;;;;5037080;28;1310;-73
2022/10/23 03:46:00;;;;;;;;;;;;;;;;;;5055263;28;1911;-73
2022/10/23 03:48:26;;;;;;;;;;;;;;;;;;5037298;28;1370;-73
2022/10/23 03:50:57;;;;;;;;;;;;;;;;;;5037467;28;1309;-74
2022/10/23 03:53:23;;;;;;;;;;;;;;;;;;5054803;28;1063;-73
2022/10/23 03:55:49;;;;;;;;;;;;;;;;;;5037120;28;1281;-72
2022/10/23 03:58:17;;;;;;;;;;;;;;;;;;5037328;28;1625;-72
2022/10/23 04:00:43;;;;;;;;;;;;;;;;;;5037040;28;1134;-72
2022/10/23 04:03:10;;;;;;;;;;;;;;;;;;5037076;28;1393;-73
2022/10/23 04:05:37;;;;;;;;;;;;;;;;;;5054900;28;1906;-72
2022/10/23 04:08:04;;;;;;;;;;;;;;;;;;5037013;28;1281;-73
2022/10/23 04:10:32;;;;;;;;;;;;;;;;;;5037020;28;1412;-73
2022/10/23 04:12:58;;;;;;;;;;;;;;;;;;5036614;28;1141;-73
2022/10/23 04:15:26;;;;;;;;;;;;;;;;;;5036807;28;1374;-74
2022/10/23 04:17:53;;;;;;;;;;;;;;;;;;5034873;28;1438;-73
2022/10/23 04:20:20;;;;;;;;;;;;;;;;;;5035353;28;1323;-73
2022/10/23 04:22:46;;;;;;;;;;;;;;;;;;5052830;28;866;-72
2022/10/23 04:25:13;;;;;;;;;;;;;;;;;;5053192;28;807;-73
2022/10/23 04:27:39;;;;;;;;;;;;;;;;;;5035137;28;1922;-72
2022/10/23 04:30:06;;;;;;;;;;;;;;;;;;5053270;28;1120;-73
2022/10/23 04:32:32;;;;;;;;;;;;;;;;;;5034800;28;1242;-73
2022/10/23 04:34:58;;;;;;;;;;;;;;;;;;5035215;28;1273;-73
2022/10/23 04:37:26;;;;;;;;;;;;;;;;;;5034893;28;1413;-72
2022/10/23 04:39:53;;;;;;;;;;;;;;;;;;5035203;28;1265;-72
2022/10/23 04:42:19;;;;;;;;;;;;;;;;;;5034741;28;1167;-73
2022/10/23 04:44:46;;;;;;;;;;;;;;;;;;5034856;28;1231;-73
2022/10/23 04:47:13;;;;;;;;;;;;;;;;;;5034802;28;1910;-72
2022/10/23 04:49:52;;;;;;;;;;;;;;;;;;5034936;28;1370;-72
2022/10/23 04:52:36;;;;;;;;;;;;;;;;;;5034467;28;1322;-72
2022/10/23 04:55:20;;;;;;;;;;;;;;;;;;5034763;28;1529;-73
2022/10/23 04:58:04;;;;;;;;;;;;;;;;;;5034639;28;1391;-73
2022/10/23 05:00:31;;;;;;;;;;;;;;;;;;5034592;28;1164;-72
2022/10/23 05:02:57;;;;;;;;;;;;;;;;;;5034369;28;1420;-72
2022/10/23 05:05:29;;;;;;;;;;;;;;;;;;5034861;28;1305;-73
2022/10/23 05:08:03;;;;;;;;;;;;;;;;;;5052497;28;1348;-73
2022/10/23 05:10:47;;;;;;;;;;;;;;;;;;5034493;28;1309;-73
2022/10/23 05:13:14;;;;;;;;;;;;;;;;;;5034135;28;1150;-74
2022/10/23 05:15:41;;;;;;;;;;;;;;;;;;5034296;28;1319;-74
2022/10/23 05:18:08;;;;;;;;;;;;;;;;;;5034156;28;1576;-74
2022/10/23 05:20:34;;;;;;;;;;;;;;;;;;5075048;22;3589;-71
2022/10/23 05:23:00;;;;;;;;;;;;;;;;;;5072899;28;1163;-70
2022/10/23 05:25:29;;;;;;;;;;;;;;;;;;5073978;28;1135;-70
2022/10/23 05:28:13;;;;;;;;;;;;;;;;;;5073927;28;1363;-69
2022/10/23 05:30:40;;;;;;;;;;;;;;;;;;5073644;28;1569;-71
2022/10/23 05:33:07;;;;;;;;;;;;;;;;;;5073403;28;1775;-70
2022/10/23 05:35:38;;;;;;;;;;;;;;;;;;5073863;28;1366;-71
2022/10/23 05:38:05;;;;;;;;;;;;;;;;;;5073422;28;1328;-70
2022/10/23 05:40:33;;;;;;;;;;;;;;;;;;5073570;28;1389;-72
2022/10/23 05:43:05;;;;;;;;;;;;;;;;;;5073096;28;1440;-68
2022/10/23 05:45:47;;;;;;;;;;;;;;;;;;5073455;28;1918;-70
2022/10/23 05:48:40;;;;;;;;;;;;;;;;;;5067545;28;1634;-72
2022/10/23 05:51:21;;;;;;;;;;;;;;;;;;5091232;28;793;-69
2022/10/23 05:53:54;;;;;;;;;;;;;;;;;;5073225;28;1430;-69
2022/10/23 05:56:32;;;;;;;;;;;;;;;;;;5073423;28;1346;-70
2022/10/23 05:59:09;;;;;;;;;;;;;;;;;;5072953;28;1332;-71
2022/10/23 06:02:01;;;;;;;;;;;;;;;;;;5069757;28;1279;-71
2022/10/23 06:04:47;;;;;;;;;;;;;;;;;;5091284;28;1475;-70
2022/10/23 06:07:25;;;;;;;;;;;;;;;;;;5091377;28;1909;-71
2022/10/23 06:09:53;;;;;;;;;;;;;;;;;;5072880;28;1382;-70
2022/10/23 06:12:20;;;;;;;;;;;;;;;;;;5072757;28;980;-73
2022/10/23 06:14:49;;;;;;;;;;;;;;;;;;5072875;28;1647;-71
2022/10/23 06:17:15;;;;;;;;;;;;;;;;;;5073227;28;1195;-70
2022/10/23 06:19:44;;;;;;;;;;;;;;;;;;5072757;28;1376;-71
2022/10/23 06:22:12;;;;;;;;;;;;;;;;;;5072722;28;1553;-69
2022/10/23 06:24:46;;;;;;;;;;;;;;;;;;5073237;28;1802;-72
2022/10/23 06:27:18;;;;;;;;;;;;;;;;;;5073016;28;1979;-71
2022/10/23 06:29:47;;;;;;;;;;;;;;;;;;5072858;28;1393;-70
2022/10/23 06:32:13;;;;;;;;;;;;;;;;;;5072602;28;1317;-71
2022/10/23 06:34:44;;;;;;;;;;;;;;;;;;5072847;28;1385;-70
2022/10/23 06:37:10;;;;;;;;;;;;;;;;;;5072794;28;1249;-71
2022/10/23 06:39:45;;;;;;;;;;;;;;;;;;5072857;28;1312;-69
2022/10/23 06:42:14;;;;;;;;;;;;;;;;;;5094989;28;829;-70
2022/10/23 06:45:11;;;;;;;;;;;;;;;;;;5094789;28;1040;-71
2022/10/23 06:47:55;;;;;;;;;;;;;;;;;;5095058;28;1914;-69
2022/10/23 06:50:24;;;;;;;;;;;;;;;;;;5095063;28;1384;-72
2022/10/23 06:52:52;;;;;;;;;;;;;;;;;;5076562;28;1459;-71
2022/10/23 06:55:18;;;;;;;;;;;;;;;;;;5094932;28;810;-73
2022/10/23 06:57:45;;;;;;;;;;;;;;;;;;5076764;28;1206;-72
2022/10/23 07:00:13;;;;;;;;;;;;;;;;;;5076473;28;1416;-69
2022/10/23 07:02:49;;;;;;;;;;;;;;;;;;5076255;28;1418;-73
2022/10/23 07:05:16;;;;;;;;;;;;;;;;;;5076426;28;1114;-69
2022/10/23 07:07:43;;;;;;;;;;;;;;;;;;5076366;28;1913;-71
2022/10/23 07:10:10;;;;;;;;;;;;;;;;;;5076160;28;1313;-72
2022/10/23 07:12:40;;;;;;;;;;;;;;;;;;5076243;28;1462;-72
2022/10/23 07:15:27;;;;;;;;;;;;;;;;;;5074278;28;1613;-71
2022/10/23 07:17:54;;;;;;;;;;;;;;;;;;5036172;28;1432;-72
2022/10/23 07:20:22;;;;;;;;;;;;;;;;;;5036019;28;1355;-71
2022/10/23 07:22:50;;;;;;;;;;;;;;;;;;5035825;28;1308;-72
2022/10/23 07:25:23;;;;;;;;;;;;;;;;;;5036028;28;1473;-72
2022/10/23 07:27:49;;;;;;;;;;;;;;;;;;5036008;28;2097;-71
2022/10/23 07:30:16;;;;;;;;;;;;;;;;;;5053797;28;1314;-71
2022/10/23 07:32:49;;;;;;;;;;;;;;;;;;5035817;28;1347;-71
2022/10/23 07:35:38;;;;;;;;;;;;;;;;;;5035748;28;1317;-72
2022/10/23 07:38:08;;;;;;;;;;;;;;;;;;5035801;28;902;-71
2022/10/23 07:40:37;;;;;;;;;;;;;;;;;;5036041;28;1664;-71
2022/10/23 07:43:06;;;;;;;;;;;;;;;;;;5035404;28;1335;-71
2022/10/23 07:45:34;;;;;;;;;;;;;;;;;;5035742;28;1211;-71
2022/10/23 07:48:08;;;;;;;;;;;;;;;;;;5035426;28;1968;-72
2022/10/23 07:50:57;;;;;;;;;;;;;;;;;;5053037;28;1334;-71
2022/10/23 07:53:24;;;;;;;;;;;;;;;;;;5034054;28;1431;-72
2022/10/23 07:55:53;;;;;;;;;;;;;;;;;;5035638;28;1288;-72
2022/10/23 07:58:20;;;;;;;;;;;;;;;;;;5053306;28;880;-71
2022/10/23 08:00:54;;;;;;;;;;;;;;;;;;5035202;28;1425;-71
2022/10/23 08:03:30;;;;;;;;;;;;;;;;;;5035174;28;1587;-68
2022/10/23 08:05:58;;;;;;;;;;;;;;;;;;5035178;28;1040;-71
2022/10/23 08:08:25;;;;;;;;;;;;;;;;;;5035376;28;1949;-71
2022/10/23 08:10:56;;;;;;;;;;;;;;;;;;5035130;28;1356;-71
2022/10/23 08:13:27;;;;;;;;;;;;;;;;;;5034989;28;1371;-72
2022/10/23 08:16:02;;;;;;;;;;;;;;;;;;5034971;28;1320;-72
2022/10/23 08:18:48;;;;;;;;;;;;;;;;;;5052907;28;1302;-72
2022/10/23 08:21:15;;;;;;;;;;;;;;;;;;5034888;28;1309;-72
2022/10/23 08:23:41;;;;;;;;;;;;;;;;;;5035062;28;1347;-72
2022/10/23 08:26:08;;;;;;;;;;;;;;;;;;5052826;28;766;-72
2022/10/23 08:28:34;;;;;;;;;;;;;;;;;;5034861;28;1910;-71
2022/10/23 08:31:06;;;;;;;;;;;;;;;;;;5034903;28;1328;-71
2022/10/23 08:33:32;;;;;;;;;;;;;;;;;;5034525;28;902;-71
2022/10/23 08:36:00;;;;;;;;;;;;;;;;;;5034705;28;1311;-71
2022/10/23 08:38:32;;;;;;;;;;;;;;;;;;5034848;28;1011;-71
2022/10/23 08:41:00;;;;;;;;;;;;;;;;;;5034478;28;1331;-73
2022/10/23 08:43:50;;;;;;;;;;;;;;;;;;5034345;28;1558;-71
2022/10/23 08:46:28;;;;;;;;;;;;;;;;;;5034570;28;1512;-72
2022/10/23 08:49:20;;;;;;;;;;;;;;;;;;5014495;28;1404;-72
2022/10/23 08:51:57;;;;;;;;;;;;;;;;;;5033891;28;1194;-71
2022/10/23 08:54:24;;;;;;;;;;;;;;;;;;5052546;28;1100;-72
2022/10/23 08:56:51;;;;;;;;;;;;;;;;;;5052297;28;1080;-71
2022/10/23 08:59:19;;;;;;;;;;;;;;;;;;5052368;28;1376;-72
2022/10/23 09:01:46;;;;;;;;;;;;;;;;;;5052017;28;791;-71
2022/10/23 09:04:13;;;;;;;;;;;;;;;;;;5051493;28;1063;-73
2022/10/23 09:06:39;;;;;;;;;;;;;;;;;;5034415;28;1371;-71
2022/10/23 09:09:12;;;;;;;;;;;;;;;;;;5051772;28;1983;-71
2022/10/23 09:11:38;;;;;;;;;;;;;;;;;;5051845;28;1123;-72
2022/10/23 09:14:20;;;;;;;;;;;;;;;;;;5034228;28;1121;-71
2022/10/23 09:16:49;;;;;;;;;;;;;;;;;;5034086;28;838;-72
2022/10/23 09:19:16;;;;;;;;;;;;;;;;;;5054032;28;1480;-70
2022/10/23 09:21:42;;;;;;;;;;;;;;;;;;5051083;28;787;-70
2022/10/23 09:24:13;;;;;;;;;;;;;;;;;;5051561;28;1076;-70
2022/10/23 09:26:41;;;;;;;;;;;;;;;;;;5051180;28;858;-71
2022/10/23 09:29:23;;;;;;;;;;;;;;;;;;5051340;28;1973;-71
2022/10/23 09:31:50;;;;;;;;;;;;;;;;;;5051193;28;1116;-71
2022/10/23 09:34:18;;;;;;;;;;;;;;;;;;5051288;28;861;-72
2022/10/23 09:36:47;;;;;;;;;;;;;;;;;;5051336;28;902;-71
2022/10/23 09:39:21;;;;;;;;;;;;;;;;;;5064354;28;1631;-72
2022/10/23 09:41:47;;;;;;;;;;;;;;;;;;5066186;28;1177;-73
2022/10/23 09:44:16;;;;;;;;;;;;;;;;;;5070823;28;1177;-73
2022/10/23 09:46:45;;;;;;;;;;;;;;;;;;5053063;28;1094;-72
2022/10/23 09:49:15;;;;;;;;;;;;;;;;;;5070863;28;1890;-69
2022/10/23 09:51:46;;;;;;;;;;;;;;;;;;5070588;28;775;-69
2022/10/23 09:54:12;;;;;;;;;;;;;;;;;;5070560;28;811;-70
2022/10/23 09:56:40;;;;;;;;;;;;;;;;;;5071088;28;1051;-71
2022/10/23 09:59:16;;;;;;;;;;;;;;;;;;5070926;28;1451;-68
2022/10/23 10:01:45;;;;;;;;;;;;;;;;;;5070699;28;1052;-69
2022/10/23 10:04:41;;;;;;;;;;;;;;;;;;5052763;28;1023;-69
2022/10/23 10:07:15;;;;;;;;;;;;;;;;;;5070606;28;1064;-67
2022/10/23 10:09:42;;;;;;;;;;;;;;;;;;5070454;28;1333;-69
2022/10/23 10:12:15;;;;;;;;;;;;;;;;;;5070211;28;866;-71
2022/10/23 10:14:43;;;;;;;;;;;;;;;;;;5069800;28;782;-72
2022/10/23 10:17:13;;;;;;;;;;;;;;;;;;5070538;28;949;-71
2022/10/23 10:19:43;;;;;;;;;;;;;;;;;;5070425;28;1293;-72
2022/10/23 10:22:11;;;;;;;;;;;;;;;;;;5070461;28;898;-71
2022/10/23 10:24:39;;;;;;;;;;;;;;;;;;5070236;28;1119;-72
2022/10/23 10:27:07;;;;;;;;;;;;;;;;;;5070361;28;1063;-72
2022/10/23 10:29:40;;;;;;;;;;;;;;;;;;5070469;28;1918;-72
2022/10/23 10:32:10;;;;;;;;;;;;;;;;;;5070062;28;790;-72
2022/10/23 10:34:38;;;;;;;;;;;;;;;;;;5070592;28;922;-71
2022/10/23 10:37:06;;;;;;;;;;;;;;;;;;5070073;28;1072;-71
2022/10/23 10:39:37;;;;;;;;;;;;;;;;;;5070099;28;1352;-70
2022/10/23 10:42:16;;;;;;;;;;;;;;;;;;5048915;28;1547;-72
2022/10/23 10:44:48;;;;;;;;;;;;;;;;;;5062294;28;1612;-70
2022/10/23 10:47:15;;;;;;;;;;;;;;;;;;5067434;28;1368;-69
2022/10/23 10:49:45;;;;;;;;;;;;;;;;;;5044777;28;1914;-69
2022/10/23 10:52:19;;;;;;;;;;;;;;;;;;5063761;28;1423;-69
2022/10/23 10:54:48;;;;;;;;;;;;;;;;;;5090935;28;913;-70
2022/10/23 10:57:16;;;;;;;;;;;;;;;;;;5086695;28;1470;-70
2022/10/23 10:59:43;;;;;;;;;;;;;;;;;;5071006;28;1598;-69
2022/10/23 11:02:15;;;;;;;;;;;;;;;;;;5076731;28;1456;-70
2022/10/23 11:04:44;;;;;;;;;;;;;;;;;;5082452;28;1121;-70
2022/10/23 11:07:11;;;;;;;;;;;;;;;;;;5090624;28;787;-69
2022/10/23 11:09:37;;;;;;;;;;;;;;;;;;5080456;28;1914;-70
2022/10/23 11:12:04;;;;;;;;;;;;;;;;;;5050293;28;1127;-70
2022/10/23 11:14:31;;;;;;;;;;;;;;;;;;5050500;28;1130;-69
2022/10/23 11:16:59;;;;;;;;;;;;;;;;;;5050405;28;1119;-70
2022/10/23 11:19:28;;;;;;;;;;;;;;;;;;5032417;28;1297;-72
2022/10/23 11:21:56;;;;;;;;;;;;;;;;;;5050155;28;1021;-71
2022/10/23 11:24:45;;;;;;;;;;;;;;;;;;5050325;28;1063;-71
2022/10/23 11:27:26;;;;;;;;;;;;;;;;;;5089238;22;4170;-71
2022/10/23 11:30:00;;;;;;;;;;;;;;;;;;5090775;28;1914;-71
2022/10/23 11:32:30;;;;;;;;;;;;;;;;;;5076141;28;1040;-71
2022/10/23 11:35:00;;;;;;;;;;;;;;;;;;5076159;28;1044;-71
2022/10/23 11:37:26;;;;;;;;;;;;;;;;;;5094545;28;1357;-72
2022/10/23 11:39:58;;;;;;;;;;;;;;;;;;5094412;28;1079;-71
2022/10/23 11:42:29;;;;;;;;;;;;;;;;;;5094145;28;1055;-73
2022/10/23 11:44:55;;;;;;;;;;;;;;;;;;5094129;28;947;-70
2022/10/23 11:47:32;;;;;;;;;;;;;;;;;;5076011;28;1367;-71
2022/10/23 11:50:14;;;;;;;;;;;;;;;;;;5075690;28;1987;-73
2022/10/23 11:52:51;;;;;;;;;;;;;;;;;;5094199;28;937;-71
2022/10/23 11:55:18;;;;;;;;;;;;;;;;;;5094132;28;1011;-72
2022/10/23 11:57:45;;;;;;;;;;;;;;;;;;5067474;28;2561;-71
2022/10/23 12:00:18;;;;;;;;;;;;;;;;;;5071915;28;1456;-71
2022/10/23 12:02:44;;;;;;;;;;;;;;;;;;5068616;28;1072;-70
2022/10/23 12:05:25;;;;;;;;;;;;;;;;;;5074225;28;1488;-70
2022/10/23 12:07:53;;;;;;;;;;;;;;;;;;5090385;28;1976;-72
2022/10/23 12:10:20;;;;;;;;;;;;;;;;;;5069336;28;1426;-72
2022/10/23 12:12:54;;;;;;;;;;;;;;;;;;5059966;28;784;-69
2022/10/23 12:15:21;;;;;;;;;;;;;;;;;;5035436;28;1170;-71
2022/10/23 12:17:47;;;;;;;;;;;;;;;;;;5053501;28;1419;-72
2022/10/23 12:20:30;;;;;;;;;;;;;;;;;;5050645;28;1506;-72
2022/10/23 12:23:10;;;;;;;;;;;;;;;;;;5074180;28;1395;-71
2022/10/23 12:25:39;;;;;;;;;;;;;;;;;;5057389;28;1479;-68
2022/10/23 12:28:05;;;;;;;;;;;;;;;;;;5065255;28;1918;-70
2022/10/23 12:30:33;;;;;;;;;;;;;;;;;;5061820;28;1582;-72
2022/10/23 12:33:05;;;;;;;;;;;;;;;;;;5072955;28;858;-71
2022/10/23 12:35:41;;;;;;;;;;;;;;;;;;5073367;28;1107;-71
2022/10/23 12:38:10;;;;;;;;;;;;;;;;;;5072389;28;1000;-71
2022/10/23 12:40:36;;;;;;;;;;;;;;;;;;5055191;28;1176;-71
2022/10/23 12:43:02;;;;;;;;;;;;;;;;;;5054643;28;1390;-72
2022/10/23 12:45:30;;;;;;;;;;;;;;;;;;5073076;28;835;-71
2022/10/23 12:47:56;;;;;;;;;;;;;;;;;;5072641;28;1300;-71
2022/10/23 12:50:23;;;;;;;;;;;;;;;;;;5072594;28;1914;-72
2022/10/23 12:52:54;;;;;;;;;;;;;;;;;;5072480;28;1092;-71
2022/10/23 12:55:20;;;;;;;;;;;;;;;;;;5072744;28;1068;-72
2022/10/23 12:57:46;;;;;;;;;;;;;;;;;;5054768;28;1510;-72
2022/10/23 13:00:14;;;;;;;;;;;;;;;;;;5072402;28;771;-71
2022/10/23 13:02:40;;;;;;;;;;;;;;;;;;5072551;28;1079;-71
2022/10/23 13:05:07;;;;;;;;;;;;;;;;;;5054554;28;1325;-71
2022/10/23 13:07:35;;;;;;;;;;;;;;;;;;5072393;28;1307;-71
2022/10/23 13:10:04;;;;;;;;;;;;;;;;;;5054337;28;1906;-71
2022/10/23 13:12:46;;;;;;;;;;;;;;;;;;5054243;28;1353;-69
2022/10/23 13:15:16;;;;;;;;;;;;;;;;;;5072194;28;723;-71
2022/10/23 13:17:43;;;;;;;;;;;;;;;;;;5059024;28;1558;-71
2022/10/23 13:20:10;;;;;;;;;;;;;;;;;;5052232;28;1123;-71
2022/10/23 13:22:36;;;;;;;;;;;;;;;;;;5052025;28;1092;-72
2022/10/23 13:25:17;;;;;;;;;;;;;;;;;;5065416;28;1542;-73
2022/10/23 13:27:44;;;;;;;;;;;;;;;;;;5057757;28;1344;-72
2022/10/23 13:30:26;;;;;;;;;;;;;;;;;;5071738;28;1975;-73
2022/10/23 13:32:52;;;;;;;;;;;;;;;;;;5071652;28;1146;-73
2022/10/23 13:35:20;;;;;;;;;;;;;;;;;;5071770;28;958;-72
2022/10/23 13:37:47;;;;;;;;;;;;;;;;;;5071675;28;1296;-71
2022/10/23 13:40:22;;;;;;;;;;;;;;;;;;5071715;28;1005;-74
2022/10/23 13:42:49;;;;;;;;;;;;;;;;;;5053465;28;1120;-73
2022/10/23 13:45:16;;;;;;;;;;;;;;;;;;5071718;28;1012;-74
2022/10/23 13:47:42;;;;;;;;;;;;;;;;;;5071677;28;1313;-72
2022/10/23 13:50:10;;;;;;;;;;;;;;;;;;5050394;28;1918;-72
2022/10/23 13:52:36;;;;;;;;;;;;;;;;;;5076355;28;1622;-71
2022/10/23 13:55:03;;;;;;;;;;;;;;;;;;5088500;28;1133;-72
2022/10/23 13:57:29;;;;;;;;;;;;;;;;;;5073141;28;1359;-73
2022/10/23 13:59:56;;;;;;;;;;;;;;;;;;5079173;28;1600;-71
2022/10/23 14:02:23;;;;;;;;;;;;;;;;;;5082802;28;1262;-73
2022/10/23 14:04:50;;;;;;;;;;;;;;;;;;5071425;28;1297;-72
2022/10/23 14:07:16;;;;;;;;;;;;;;;;;;5067666;28;1502;-72
2022/10/23 14:09:43;;;;;;;;;;;;;;;;;;5071595;28;1914;-72
2022/10/23 14:12:10;;;;;;;;;;;;;;;;;;5049735;28;1430;-70
2022/10/23 14:14:36;;;;;;;;;;;;;;;;;;5078908;28;1330;-71
2022/10/23 14:17:04;;;;;;;;;;;;;;;;;;5078939;28;1328;-72
2022/10/23 14:19:30;;;;;;;;;;;;;;;;;;5080820;28;1363;-73
2022/10/23 14:21:56;;;;;;;;;;;;;;;;;;5082314;28;1219;-72
2022/10/23 14:24:23;;;;;;;;;;;;;;;;;;5091705;28;989;-73
2022/10/23 14:26:49;;;;;;;;;;;;;;;;;;5072104;28;1419;-72
2022/10/23 14:29:15;;;;;;;;;;;;;;;;;;5061078;28;1918;-72
2022/10/23 14:31:42;;;;;;;;;;;;;;;;;;5048937;28;1603;-72
2022/10/23 14:34:09;;;;;;;;;;;;;;;;;;5089918;28;1165;-72
2022/10/23 14:36:36;;;;;;;;;;;;;;;;;;5073503;28;1410;-72
2022/10/23 14:39:02;;;;;;;;;;;;;;;;;;5055857;28;1475;-72
2022/10/23 14:41:28;;;;;;;;;;;;;;;;;;5060530;28;1157;-72
2022/10/23 14:43:55;;;;;;;;;;;;;;;;;;5066491;28;1545;-72
2022/10/23 14:46:23;;;;;;;;;;;;;;;;;;5060207;28;1518;-72
2022/10/23 14:48:49;;;;;;;;;;;;;;;;;;5087294;28;1906;-71
2022/10/23 14:51:18;;;;;;;;;;;;;;;;;;5067333;28;1462;-72
2022/10/23 14:53:44;;;;;;;;;;;;;;;;;;5086447;28;1224;-73
2022/10/23 14:56:10;;;;;;;;;;;;;;;;;;5054445;28;1419;-74
2022/10/23 14:58:37;;;;;;;;;;;;;;;;;;5082128;28;1220;-72
2022/10/23 15:01:03;;;;;;;;;;;;;;;;;;5053099;28;1235;-72
2022/10/23 15:03:29;;;;;;;;;;;;;;;;;;5056440;28;1323;-72
2022/10/23 15:05:56;;;;;;;;;;;;;;;;;;5056311;28;1455;-72
2022/10/23 15:08:23;;;;;;;;;;;;;;;;;;5070911;28;1359;-72
2022/10/23 15:10:50;;;;;;;;;;;;;;;;;;5060466;28;1922;-72
2022/10/23 15:13:16;;;;;;;;;;;;;;;;;;5058221;28;1445;-73
2022/10/23 15:15:42;;;;;;;;;;;;;;;;;;5055444;28;1468;-73
2022/10/23 15:18:09;;;;;;;;;;;;;;;;;;5078710;28;1442;-73
2022/10/23 15:20:35;;;;;;;;;;;;;;;;;;5079112;28;1555;-72
2022/10/23 15:23:01;;;;;;;;;;;;;;;;;;5063441;28;1346;-73
2022/10/23 15:25:29;;;;;;;;;;;;;;;;;;5054222;28;1326;-75
2022/10/23 15:27:55;;;;;;;;;;;;;;;;;;5077083;28;1431;-73
2022/10/23 15:30:22;;;;;;;;;;;;;;;;;;5072564;28;1906;-72
2022/10/23 15:32:48;;;;;;;;;;;;;;;;;;5054331;28;1119;-72
2022/10/23 15:35:14;;;;;;;;;;;;;;;;;;5053611;28;1479;-73
2022/10/23 15:37:40;;;;;;;;;;;;;;;;;;5061733;28;1375;-71
2022/10/23 15:40:07;;;;;;;;;;;;;;;;;;5080862;28;1567;-72
2022/10/23 15:42:35;;;;;;;;;;;;;;;;;;5071867;28;1135;-73
2022/10/23 15:45:01;;;;;;;;;;;;;;;;;;5053490;28;1315;-69
2022/10/23 15:47:27;;;;;;;;;;;;;;;;;;5068006;28;1358;-73
2022/10/23 15:49:53;;;;;;;;;;;;;;;;;;5075991;28;1963;-71
2022/10/23 15:52:20;;;;;;;;;;;;;;;;;;5071032;28;1029;-73
2022/10/23 15:54:46;;;;;;;;;;;;;;;;;;5054071;28;1448;-71
2022/10/23 15:57:12;;;;;;;;;;;;;;;;;;5082617;28;1418;-71
2022/10/23 15:59:39;;;;;;;;;;;;;;;;;;5083005;28;1194;-73
2022/10/23 16:02:06;;;;;;;;;;;;;;;;;;5075592;28;1166;-72
2022/10/23 16:04:33;;;;;;;;;;;;;;;;;;5074467;28;1143;-72
2022/10/23 16:06:59;;;;;;;;;;;;;;;;;;5073439;28;1392;-73
2022/10/23 16:09:25;;;;;;;;;;;;;;;;;;5068880;28;1976;-72
2022/10/23 16:11:51;;;;;;;;;;;;;;;;;;5068885;28;1451;-72
2022/10/23 16:14:18;;;;;;;;;;;;;;;;;;5066908;28;1518;-72
2022/10/23 16:16:45;;;;;;;;;;;;;;;;;;5059908;28;1479;-71
2022/10/23 16:19:11;;;;;;;;;;;;;;;;;;5072352;28;1156;-71
2022/10/23 16:21:38;;;;;;;;;;;;;;;;;;5066561;28;1396;-72
2022/10/23 16:24:05;;;;;;;;;;;;;;;;;;5057230;28;1577;-72
2022/10/23 16:26:31;;;;;;;;;;;;;;;;;;5070893;28;1343;-72
2022/10/23 16:28:58;;;;;;;;;;;;;;;;;;5070764;28;977;-71
2022/10/23 16:31:24;;;;;;;;;;;;;;;;;;5050082;28;1909;-72
2022/10/23 16:33:52;;;;;;;;;;;;;;;;;;5051305;28;1219;-72
2022/10/23 16:36:18;;;;;;;;;;;;;;;;;;5051193;28;1506;-72
2022/10/23 16:39:03;;;;;;;;;;;;;;;;;;5065031;28;1439;-70
2022/10/23 16:41:55;;;;;;;;;;;;;;;;;;5067341;28;1431;-73
2022/10/23 16:44:24;;;;;;;;;;;;;;;;;;5050029;28;1267;-73
2022/10/23 16:46:56;;;;;;;;;;;;;;;;;;5051987;28;1482;-72
2022/10/23 16:49:24;;;;;;;;;;;;;;;;;;5052990;28;1974;-72
2022/10/23 16:51:50;;;;;;;;;;;;;;;;;;5056471;28;1400;-73
2022/10/23 16:54:16;;;;;;;;;;;;;;;;;;5072209;28;1388;-72
2022/10/23 16:56:43;;;;;;;;;;;;;;;;;;5082114;28;1506;-72
2022/10/23 16:59:10;;;;;;;;;;;;;;;;;;5076337;28;1483;-71
2022/10/23 17:01:36;;;;;;;;;;;;;;;;;;5075939;28;1168;-72
2022/10/23 17:04:02;;;;;;;;;;;;;;;;;;5067499;28;1427;-72
2022/10/23 17:06:30;;;;;;;;;;;;;;;;;;5081729;28;1513;-71
2022/10/23 17:08:57;;;;;;;;;;;;;;;;;;5070536;28;1407;-72
2022/10/23 17:11:24;;;;;;;;;;;;;;;;;;5070855;28;1961;-71
2022/10/23 17:13:51;;;;;;;;;;;;;;;;;;5073659;28;1168;-72
2022/10/23 17:16:19;;;;;;;;;;;;;;;;;;5055334;28;1487;-72
2022/10/23 17:18:45;;;;;;;;;;;;;;;;;;5068551;28;1368;-72
2022/10/23 17:21:12;;;;;;;;;;;;;;;;;;5067294;28;1341;-71